Time;durP1;ratioP1;P1;durP2;ratioP2;P2;SDS_P1;SDS_P2;PMS_P1;PMS_P2;Temp;Humidity;BMP_temperature;BMP_pressure;BME280_temperature;BME280_humidity;BME280_pressure;Samples;Min_cycle;Max_cycle;Signal;HPM_P1;HPM_P2
2021/12/04 00:00:01;;;;;;;6.40;6.00;;;3.50;99.90;;;;;;4998026;28;20176;-62
2021/12/04 00:02:27;;;;;;;6.40;5.93;;;3.50;99.90;;;;;;4997710;28;20211;-63
2021/12/04 00:04:54;;;;;;;7.00;6.50;;;3.50;99.90;;;;;;5015751;28;20560;-62
2021/12/04 00:07:22;;;;;;;6.90;6.40;;;3.50;99.90;;;;;;5015420;28;20642;-62
2021/12/04 00:09:50;;;;;;;6.77;6.27;;;3.50;99.90;;;;;;5015914;28;20198;-62
2021/12/04 00:12:18;;;;;;;6.60;6.10;;;3.50;99.90;;;;;;5015360;28;20199;-62
2021/12/04 00:14:45;;;;;;;6.73;6.20;;;3.50;99.90;;;;;;4997762;28;20180;-62
2021/12/04 00:17:11;;;;;;;7.20;6.50;;;3.50;99.90;;;;;;5015052;28;20196;-62
2021/12/04 00:19:37;;;;;;;6.80;6.20;;;3.50;99.90;;;;;;5014962;28;20180;-62
2021/12/04 00:22:04;;;;;;;6.70;6.20;;;3.50;99.90;;;;;;5014782;28;20195;-62
2021/12/04 00:24:30;;;;;;;6.67;6.17;;;3.50;99.90;;;;;;5014896;28;20642;-62
2021/12/04 00:26:56;;;;;;;6.77;6.37;;;3.50;99.90;;;;;;5014750;28;20291;-62
2021/12/04 00:29:23;;;;;;;6.60;6.20;;;3.50;99.90;;;;;;5015049;28;20176;-62
2021/12/04 00:31:53;;;;;;;6.47;6.07;;;3.50;99.90;;;;;;5014871;28;20210;-62
2021/12/04 00:34:22;;;;;;;6.30;5.90;;;3.50;99.90;;;;;;5015070;28;20164;-62
2021/12/04 00:50:22;;;;;;;6.20;5.80;;;3.50;99.90;;;;;;5014713;28;20222;-62
2021/12/04 00:52:48;;;;;;;6.53;6.03;;;3.60;99.90;;;;;;5014317;28;20697;-62
2021/12/04 00:55:14;;;;;;;6.27;5.87;;;3.60;99.90;;;;;;5014285;28;20208;-62
2021/12/04 00:57:39;;;;;;;6.07;5.60;;;3.60;99.90;;;;;;5014722;28;20511;-62
2021/12/04 01:00:06;;;;;;;6.60;6.13;;;3.50;99.90;;;;;;5014506;28;20171;-62
2021/12/04 01:02:32;;;;;;;6.23;5.83;;;3.60;99.90;;;;;;5014034;28;20187;-62
2021/12/04 01:04:58;;;;;;;6.83;6.33;;;3.60;99.90;;;;;;5014337;28;20218;-62
2021/12/04 01:07:27;;;;;;;6.27;5.77;;;3.60;99.90;;;;;;5013950;28;20175;-63
2021/12/04 01:09:53;;;;;;;6.40;5.93;;;3.60;99.90;;;;;;5014420;28;20183;-62
2021/12/04 01:12:19;;;;;;;6.30;5.90;;;3.60;99.90;;;;;;5014467;28;20207;-63
2021/12/04 01:14:45;;;;;;;6.30;5.80;;;3.60;99.90;;;;;;5014178;28;20242;-62
2021/12/04 01:17:11;;;;;;;6.33;5.90;;;3.60;99.90;;;;;;5014006;28;20182;-62
2021/12/04 01:19:37;;;;;;;6.30;5.90;;;3.60;99.90;;;;;;5013904;28;20176;-62
2021/12/04 01:22:04;;;;;;;6.00;5.70;;;3.70;99.90;;;;;;5013899;28;20250;-62
2021/12/04 01:24:30;;;;;;;6.00;5.60;;;3.60;99.90;;;;;;4996099;28;20172;-62
2021/12/04 01:26:56;;;;;;;6.13;5.73;;;3.70;99.90;;;;;;5013759;28;20176;-62
2021/12/04 01:29:22;;;;;;;6.73;6.13;;;3.70;99.90;;;;;;5013971;28;20196;-62
2021/12/04 01:31:48;;;;;;;7.00;6.40;;;3.70;99.90;;;;;;5013627;28;20200;-62
2021/12/04 01:34:14;;;;;;;6.67;6.17;;;3.70;99.90;;;;;;5014224;28;20271;-62
2021/12/04 01:36:40;;;;;;;6.00;5.60;;;3.70;99.90;;;;;;5013507;28;20202;-62
2021/12/04 01:39:07;;;;;;;6.33;5.93;;;3.70;99.90;;;;;;4996017;28;20736;-62
2021/12/04 01:41:33;;;;;;;6.53;6.03;;;3.70;99.90;;;;;;4995821;28;20619;-62
2021/12/04 01:44:01;;;;;;;6.30;5.90;;;3.70;99.90;;;;;;5013535;28;20168;-62
2021/12/04 01:46:28;;;;;;;6.30;5.90;;;3.80;99.90;;;;;;5013505;28;20195;-62
2021/12/04 01:48:55;;;;;;;5.80;5.40;;;3.70;99.90;;;;;;5013764;28;20490;-62
2021/12/04 01:51:21;;;;;;;6.47;5.97;;;3.70;99.90;;;;;;5013781;28;20204;-62
2021/12/04 01:53:47;;;;;;;6.20;5.80;;;3.70;99.90;;;;;;5013419;28;20180;-62
2021/12/04 01:56:12;;;;;;;6.33;5.93;;;3.80;99.90;;;;;;4995612;28;20219;-62
2021/12/04 01:58:41;;;;;;;6.07;5.67;;;3.80;99.90;;;;;;5013924;28;20345;-62
2021/12/04 02:01:07;;;;;;;6.37;5.77;;;3.80;99.90;;;;;;5013257;28;20206;-62
2021/12/04 02:03:34;;;;;;;6.00;5.60;;;3.80;99.90;;;;;;5013210;28;20187;-62
2021/12/04 02:06:00;;;;;;;6.43;5.93;;;3.80;99.90;;;;;;5013248;28;20216;-62
2021/12/04 02:08:26;;;;;;;6.40;6.00;;;3.80;99.90;;;;;;5013218;28;20263;-62
2021/12/04 02:10:55;;;;;;;6.57;6.07;;;3.80;99.90;;;;;;4995608;28;20207;-62
2021/12/04 02:13:21;;;;;;;7.23;6.53;;;3.80;99.90;;;;;;5013238;28;20290;-62
2021/12/04 02:15:47;;;;;;;6.30;5.90;;;3.80;99.90;;;;;;5013191;28;20610;-62
2021/12/04 02:18:14;;;;;;;6.77;6.27;;;3.80;99.90;;;;;;5014400;28;20183;-62
2021/12/04 02:20:41;;;;;;;6.10;5.67;;;3.80;99.90;;;;;;5018318;28;20708;-62
2021/12/04 02:23:09;;;;;;;6.10;5.70;;;3.80;99.90;;;;;;5018474;28;20175;-62
2021/12/04 02:25:35;;;;;;;6.03;5.63;;;3.80;99.90;;;;;;5018067;28;20653;-62
2021/12/04 02:28:03;;;;;;;6.10;5.70;;;3.80;99.90;;;;;;5017800;28;20255;-62
2021/12/04 02:30:32;;;;;;;6.53;6.03;;;3.80;99.90;;;;;;5017568;28;20677;-62
2021/12/04 02:32:58;;;;;;;6.57;6.07;;;3.80;99.90;;;;;;5017409;28;20200;-62
2021/12/04 02:35:25;;;;;;;6.37;5.77;;;3.80;99.90;;;;;;4999310;28;20682;-62
2021/12/04 02:37:52;;;;;;;6.30;5.90;;;3.80;99.90;;;;;;5016943;28;20172;-62
2021/12/04 02:40:20;;;;;;;6.50;5.87;;;3.80;99.90;;;;;;5017161;28;20716;-62
2021/12/04 02:42:47;;;;;;;7.07;6.40;;;3.80;99.90;;;;;;5016876;28;20192;-62
2021/12/04 02:45:13;;;;;;;6.70;6.20;;;3.80;99.90;;;;;;5016804;28;20532;-62
2021/12/04 02:47:40;;;;;;;7.10;6.50;;;3.80;99.90;;;;;;5017147;28;20175;-62
2021/12/04 02:50:09;;;;;;;6.53;6.13;;;3.80;99.90;;;;;;4999050;28;20646;-62
2021/12/04 02:52:35;;;;;;;7.10;6.53;;;3.80;99.90;;;;;;5016538;28;20269;-63
2021/12/04 02:55:04;;;;;;;6.90;6.40;;;3.80;99.90;;;;;;5016520;28;20172;-63
2021/12/04 02:57:30;;;;;;;7.20;6.60;;;3.80;99.90;;;;;;5016530;28;20179;-63
2021/12/04 02:59:56;;;;;;;6.57;6.17;;;3.80;99.90;;;;;;5016753;28;20591;-63
2021/12/04 03:02:23;;;;;;;7.10;6.50;;;3.80;99.90;;;;;;5016298;28;20219;-63
2021/12/04 03:04:54;;;;;;;6.83;6.27;;;3.80;99.90;;;;;;5016875;28;20582;-62
2021/12/04 03:07:22;;;;;;;6.43;6.03;;;3.80;99.90;;;;;;5016634;28;20638;-62
2021/12/04 03:09:48;;;;;;;6.97;6.37;;;3.80;99.90;;;;;;5016309;28;20218;-62
2021/12/04 03:12:18;;;;;;;6.47;5.97;;;3.80;99.90;;;;;;5016456;28;20188;-62
2021/12/04 03:14:44;;;;;;;6.77;6.27;;;3.80;99.90;;;;;;5016351;28;20294;-62
2021/12/04 03:17:10;;;;;;;6.83;6.33;;;3.80;99.90;;;;;;5016403;28;20287;-62
2021/12/04 03:19:38;;;;;;;6.30;5.80;;;3.80;99.90;;;;;;5016091;28;20183;-62
2021/12/04 03:22:06;;;;;;;6.83;6.30;;;3.80;99.90;;;;;;5016034;28;20191;-62
2021/12/04 03:24:35;;;;;;;7.40;6.30;;;3.80;99.90;;;;;;4998406;28;20630;-63
2021/12/04 03:27:01;;;;;;;6.80;6.30;;;3.80;99.90;;;;;;5016489;28;20175;-62
2021/12/04 03:29:29;;;;;;;7.50;6.63;;;3.80;99.90;;;;;;5014597;28;20176;-63
2021/12/04 03:42:37;;;;;;;6.90;6.30;;;3.90;99.90;;;;;;5015934;28;20192;-62
2021/12/04 03:45:06;;;;;;;6.33;5.93;;;3.90;99.90;;;;;;5015839;28;20190;-62
2021/12/04 03:47:32;;;;;;;6.40;5.90;;;3.90;99.90;;;;;;5015627;28;20666;-63
2021/12/04 03:49:58;;;;;;;6.50;6.00;;;3.90;99.90;;;;;;5015756;28;20180;-63
2021/12/04 03:52:24;;;;;;;6.27;5.87;;;3.90;99.90;;;;;;5015890;28;20203;-63
2021/12/04 03:54:51;;;;;;;5.97;5.57;;;3.90;99.90;;;;;;5015355;28;20184;-62
2021/12/04 03:57:17;;;;;;;6.40;5.90;;;3.90;99.90;;;;;;5015362;28;20199;-62
2021/12/04 03:59:48;;;;;;;6.53;6.00;;;3.90;99.90;;;;;;5015564;28;20659;-62
2021/12/04 04:02:15;;;;;;;6.40;5.90;;;3.90;99.90;;;;;;5015215;28;20270;-62
2021/12/04 04:04:41;;;;;;;6.47;5.97;;;3.90;99.90;;;;;;4997566;28;20204;-62
2021/12/04 04:07:07;;;;;;;7.00;6.40;;;3.90;99.90;;;;;;5015224;28;20180;-62
2021/12/04 04:09:34;;;;;;;6.47;6.00;;;3.90;99.90;;;;;;5015332;28;20184;-62
2021/12/04 04:12:00;;;;;;;6.27;5.87;;;3.90;99.90;;;;;;5015205;28;20578;-62
2021/12/04 04:14:25;;;;;;;6.87;6.27;;;3.90;99.90;;;;;;4997485;28;20190;-62
2021/12/04 04:16:54;;;;;;;6.80;6.20;;;3.90;99.90;;;;;;5014964;28;20204;-62
2021/12/04 04:19:21;;;;;;;5.77;5.37;;;3.90;99.90;;;;;;5015590;28;20222;-62
2021/12/04 04:21:47;;;;;;;6.37;5.87;;;3.90;99.90;;;;;;5014891;28;20196;-62
2021/12/04 04:24:16;;;;;;;7.00;6.40;;;3.90;99.90;;;;;;4997264;28;20639;-62
2021/12/04 04:26:43;;;;;;;7.10;6.50;;;3.90;99.90;;;;;;5015106;28;20543;-62
2021/12/04 04:29:10;;;;;;;6.37;5.87;;;3.90;99.90;;;;;;4997154;28;20197;-62
2021/12/04 04:31:45;;;;;;;6.40;5.90;;;3.90;99.90;;;;;;5015163;28;20222;-63
2021/12/04 04:34:11;;;;;;;6.73;6.03;;;3.90;99.90;;;;;;5015219;28;20163;-62
2021/12/04 04:39:38;;;;;;;6.00;5.60;;;3.90;99.90;;;;;;5015098;28;20619;-62
2021/12/04 05:14:43;;;;;;;5.97;5.53;;;3.90;99.90;;;;;;4996129;28;20238;-62
2021/12/04 05:17:28;;;;;;;6.20;5.80;;;3.90;99.90;;;;;;5014062;28;20204;-62
2021/12/04 05:19:54;;;;;;;6.43;6.03;;;3.90;99.90;;;;;;5014133;28;20155;-62
2021/12/04 05:22:21;;;;;;;6.40;6.00;;;3.90;99.90;;;;;;5013796;28;20203;-62
2021/12/04 05:24:47;;;;;;;6.60;6.10;;;3.90;99.90;;;;;;4996095;28;20234;-62
2021/12/04 05:27:13;;;;;;;6.70;6.23;;;3.90;99.90;;;;;;4996391;28;20553;-62
2021/12/04 05:29:39;;;;;;;5.60;5.20;;;3.90;99.90;;;;;;4996176;28;20271;-62
2021/12/04 05:32:06;;;;;;;5.97;5.57;;;3.90;99.90;;;;;;5014120;28;20203;-63
2021/12/04 05:34:33;;;;;;;6.23;5.83;;;3.90;99.90;;;;;;5013552;28;20191;-62
2021/12/04 05:36:59;;;;;;;7.17;6.47;;;3.90;99.90;;;;;;5013519;28;20210;-62
2021/12/04 05:39:25;;;;;;;6.83;6.33;;;3.90;99.90;;;;;;5013507;28;20265;-62
2021/12/04 05:41:51;;;;;;;6.60;6.10;;;3.90;99.90;;;;;;5014158;28;20223;-62
2021/12/04 05:44:20;;;;;;;6.47;6.03;;;3.90;99.90;;;;;;4995791;28;20246;-62
2021/12/04 05:46:53;;;;;;;6.50;6.00;;;3.90;99.90;;;;;;5013517;28;20172;-62
2021/12/04 05:49:25;;;;;;;5.90;5.50;;;3.90;99.90;;;;;;5013671;28;20171;-62
2021/12/04 05:56:44;;;;;;;6.80;6.20;;;3.90;99.90;;;;;;5013251;28;20736;-62
2021/12/04 05:59:10;;;;;;;6.70;6.20;;;3.90;99.90;;;;;;5013299;28;20172;-63
2021/12/04 06:01:36;;;;;;;7.40;6.70;;;3.90;99.90;;;;;;5013163;28;20199;-62
2021/12/04 06:04:02;;;;;;;6.83;6.33;;;3.90;99.90;;;;;;5013064;28;20242;-62
2021/12/04 06:06:28;;;;;;;6.60;6.10;;;3.80;99.90;;;;;;5013148;28;20183;-62
2021/12/04 06:08:54;;;;;;;6.57;6.07;;;3.80;99.90;;;;;;5013180;28;20184;-62
2021/12/04 06:11:20;;;;;;;6.90;6.30;;;3.80;99.90;;;;;;5013081;28;20670;-62
2021/12/04 06:13:46;;;;;;;7.47;6.87;;;3.80;99.90;;;;;;5013071;28;20179;-63
2021/12/04 06:16:14;;;;;;;6.40;6.00;;;3.80;99.90;;;;;;5013188;28;20232;-62
2021/12/04 06:18:41;;;;;;;6.50;6.10;;;3.90;99.90;;;;;;5013575;28;20157;-62
2021/12/04 06:23:51;;;;;;;7.10;6.53;;;3.90;99.90;;;;;;5013400;28;20170;-62
2021/12/04 06:26:17;;;;;;;8.07;7.37;;;3.90;99.90;;;;;;5013297;28;20557;-62
2021/12/04 06:28:43;;;;;;;7.37;6.77;;;3.80;99.90;;;;;;5013287;28;20187;-62
2021/12/04 06:31:09;;;;;;;6.87;6.27;;;3.80;99.90;;;;;;4995927;28;20708;-62
2021/12/04 06:33:37;;;;;;;7.10;6.50;;;3.90;99.90;;;;;;5013553;28;20176;-62
2021/12/04 06:36:03;;;;;;;6.83;6.23;;;3.90;99.90;;;;;;5013226;28;20192;-62
2021/12/04 06:38:29;;;;;;;7.30;6.60;;;3.90;99.90;;;;;;5013546;28;20179;-62
2021/12/04 06:40:55;;;;;;;8.27;7.47;;;3.90;99.90;;;;;;4995500;28;20190;-62
2021/12/04 06:43:20;;;;;;;8.60;7.80;;;3.90;99.90;;;;;;5013740;28;20211;-62
2021/12/04 06:45:57;;;;;;;7.87;7.13;;;3.90;99.90;;;;;;5013159;28;20188;-62
2021/12/04 06:48:27;;;;;;;8.53;7.63;;;3.90;99.90;;;;;;4995529;28;20179;-62
2021/12/04 06:50:57;;;;;;;8.63;7.77;;;3.90;99.90;;;;;;4995473;28;20191;-62
2021/12/04 06:53:28;;;;;;;8.03;7.33;;;3.90;99.90;;;;;;5013204;28;20164;-62
2021/12/04 06:55:57;;;;;;;8.03;7.33;;;3.90;99.90;;;;;;5013295;28;20192;-62
2021/12/04 06:58:24;;;;;;;8.77;7.50;;;3.90;99.90;;;;;;5013010;28;20179;-62
2021/12/04 07:00:51;;;;;;;9.07;8.17;;;3.90;99.90;;;;;;5012900;28;20259;-62
2021/12/04 07:03:17;;;;;;;7.70;6.97;;;3.90;99.90;;;;;;5013062;28;20200;-62
2021/12/04 07:05:43;;;;;;;7.43;6.83;;;3.90;99.90;;;;;;5016284;28;20182;-62
2021/12/04 07:08:09;;;;;;;7.40;6.80;;;3.90;99.90;;;;;;5016865;28;20576;-62
2021/12/04 07:10:35;;;;;;;8.13;7.33;;;3.90;99.90;;;;;;5017020;28;20189;-62
2021/12/04 07:13:02;;;;;;;7.97;7.13;;;3.90;99.90;;;;;;5016518;28;20207;-62
2021/12/04 07:15:30;;;;;;;8.13;7.43;;;3.90;99.90;;;;;;5016830;28;20206;-62
2021/12/04 07:17:56;;;;;;;8.80;7.97;;;3.90;99.90;;;;;;5016683;28;20227;-62
2021/12/04 07:20:23;;;;;;;8.43;7.50;;;3.90;99.90;;;;;;5016356;28;20182;-62
2021/12/04 07:22:49;;;;;;;8.37;7.63;;;3.90;99.90;;;;;;5016268;28;20266;-62
2021/12/04 07:25:15;;;;;;;8.50;7.80;;;3.90;99.90;;;;;;5016530;28;20259;-62
2021/12/04 07:27:41;;;;;;;7.63;7.03;;;3.90;99.90;;;;;;5016206;28;20175;-62
2021/12/04 07:30:07;;;;;;;8.13;7.33;;;3.90;99.90;;;;;;4999312;28;20692;-62
2021/12/04 07:32:35;;;;;;;7.80;7.10;;;3.90;99.90;;;;;;5016340;28;20257;-62
2021/12/04 07:35:01;;;;;;;8.27;7.57;;;3.90;99.90;;;;;;5016452;28;20216;-63
2021/12/04 07:37:27;;;;;;;7.73;7.03;;;3.90;99.90;;;;;;5016215;28;20646;-62
2021/12/04 07:39:53;;;;;;;7.73;7.13;;;3.90;99.90;;;;;;5016123;28;20246;-63
2021/12/04 07:42:18;;;;;;;7.97;7.27;;;4.00;99.90;;;;;;5016115;28;20213;-63
2021/12/04 07:44:44;;;;;;;8.33;7.53;;;4.00;99.90;;;;;;5015910;28;20219;-62
2021/12/04 07:47:10;;;;;;;7.90;7.27;;;4.00;99.90;;;;;;5016098;28;20678;-63
2021/12/04 07:49:39;;;;;;;7.70;7.00;;;4.00;99.90;;;;;;5015830;28;20183;-62
2021/12/04 07:52:09;;;;;;;7.20;6.60;;;4.00;99.90;;;;;;5015994;28;20283;-62
2021/12/04 07:54:35;;;;;;;7.83;7.23;;;4.00;99.90;;;;;;5016038;28;20179;-62
2021/12/04 07:57:01;;;;;;;8.60;7.80;;;4.00;99.90;;;;;;5016039;28;20203;-63
2021/12/04 07:59:28;;;;;;;8.33;7.23;;;4.00;99.90;;;;;;5015709;28;20583;-62
2021/12/04 08:01:56;;;;;;;8.20;7.40;;;4.00;99.90;;;;;;4997976;28;20582;-63
2021/12/04 08:04:22;;;;;;;8.43;7.63;;;4.00;99.90;;;;;;5015473;28;20199;-62
2021/12/04 08:06:47;;;;;;;8.80;8.07;;;4.10;99.90;;;;;;4997977;28;20254;-63
2021/12/04 08:09:13;;;;;;;8.00;7.30;;;4.10;99.90;;;;;;5015494;28;20634;-62
2021/12/04 08:11:39;;;;;;;8.30;7.30;;;4.10;99.90;;;;;;5015655;28;20257;-62
2021/12/04 08:14:05;;;;;;;8.47;7.67;;;4.10;99.90;;;;;;5015483;28;20183;-62
2021/12/04 08:16:34;;;;;;;7.60;6.90;;;4.10;99.90;;;;;;5014457;28;20243;-62
2021/12/04 08:19:00;;;;;;;8.30;7.60;;;4.10;99.90;;;;;;4997672;28;20238;-62
2021/12/04 08:21:26;;;;;;;7.93;7.23;;;4.10;99.90;;;;;;5015987;28;20203;-63
2021/12/04 08:23:52;;;;;;;7.90;7.20;;;4.20;99.90;;;;;;4998317;28;20180;-63
2021/12/04 08:26:19;;;;;;;8.77;7.90;;;4.20;99.90;;;;;;5015859;28;20187;-63
2021/12/04 08:28:45;;;;;;;8.70;7.80;;;4.20;99.90;;;;;;5015340;28;20176;-62
2021/12/04 08:31:12;;;;;;;8.20;7.40;;;4.20;99.90;;;;;;5015094;28;20199;-63
2021/12/04 08:33:37;;;;;;;8.03;7.33;;;4.20;99.90;;;;;;5015311;28;20188;-63
2021/12/04 08:36:04;;;;;;;9.17;8.13;;;4.20;99.90;;;;;;5014883;28;20199;-63
2021/12/04 08:38:31;;;;;;;9.63;8.73;;;4.20;99.90;;;;;;5014926;28;20172;-63
2021/12/04 08:40:57;;;;;;;8.27;7.47;;;4.20;99.90;;;;;;5014827;28;20176;-63
2021/12/04 08:43:22;;;;;;;8.80;8.00;;;4.20;99.90;;;;;;5015067;28;20218;-63
2021/12/04 08:45:48;;;;;;;9.00;8.10;;;4.20;99.90;;;;;;5014765;28;20184;-63
2021/12/04 08:48:14;;;;;;;9.13;8.23;;;4.20;99.90;;;;;;5014783;28;20180;-63
2021/12/04 08:50:40;;;;;;;8.50;7.70;;;4.30;99.90;;;;;;5014930;28;20180;-63
2021/12/04 08:53:07;;;;;;;9.43;8.47;;;4.30;99.90;;;;;;5014770;28;20208;-63
2021/12/04 08:55:36;;;;;;;8.57;7.70;;;4.30;99.90;;;;;;5014862;28;20581;-63
2021/12/04 08:58:03;;;;;;;9.43;8.47;;;4.30;99.90;;;;;;5014553;28;20211;-63
2021/12/04 09:00:51;;;;;;;8.70;7.90;;;4.30;99.90;;;;;;4997573;28;20574;-62
2021/12/04 09:03:33;;;;;;;8.33;7.53;;;4.30;99.90;;;;;;5014678;28;20290;-63
2021/12/04 09:06:00;;;;;;;7.90;7.20;;;4.30;99.90;;;;;;5014703;28;20172;-63
2021/12/04 09:08:28;;;;;;;8.37;7.47;;;4.40;99.90;;;;;;5014469;28;20176;-63
2021/12/04 09:10:56;;;;;;;8.70;7.90;;;4.40;99.90;;;;;;4996597;28;20270;-63
2021/12/04 09:13:24;;;;;;;8.60;7.80;;;4.40;99.90;;;;;;5015064;28;20611;-63
2021/12/04 09:15:50;;;;;;;9.07;7.73;;;4.30;99.90;;;;;;5014370;28;20674;-63
2021/12/04 09:18:16;;;;;;;8.43;7.63;;;4.30;99.90;;;;;;5014193;28;20179;-63
2021/12/04 09:20:41;;;;;;;8.77;7.97;;;4.30;99.90;;;;;;5014156;28;20175;-63
2021/12/04 09:23:14;;;;;;;8.63;7.80;;;4.30;99.90;;;;;;5014327;28;20204;-63
2021/12/04 09:25:44;;;;;;;8.20;7.40;;;4.30;99.90;;;;;;5014547;28;20164;-64
2021/12/04 09:31:18;;;;;;;8.30;7.60;;;4.30;99.90;;;;;;5014428;28;20607;-63
2021/12/04 10:03:47;;;;;;;7.80;7.10;;;4.50;99.90;;;;;;5014039;28;20192;-62
2021/12/04 10:14:41;;;;;;;7.53;6.93;;;4.60;99.90;;;;;;5013785;28;20660;-63
2021/12/04 10:20:34;;;;;;;6.40;5.90;;;4.70;99.90;;;;;;5014004;28;20167;-62
2021/12/04 10:34:28;;;;;;;6.37;5.87;;;5.10;99.90;;;;;;5013876;28;20242;-63
2021/12/04 10:36:54;;;;;;;7.00;6.40;;;5.20;99.90;;;;;;5013472;28;20195;-63
2021/12/04 10:39:20;;;;;;;7.73;6.97;;;5.20;99.90;;;;;;4996982;28;20183;-64
2021/12/04 10:41:47;;;;;;;7.43;6.73;;;5.20;99.90;;;;;;5017017;28;20200;-63
2021/12/04 10:44:22;;;;;;;7.13;6.53;;;5.10;99.90;;;;;;5017014;28;20194;-63
2021/12/04 10:47:08;;;;;;;7.33;6.73;;;5.10;99.90;;;;;;5017581;28;20652;-63
2021/12/04 10:55:57;;;;;;;6.87;6.30;;;5.20;99.90;;;;;;5017084;28;20500;-63
2021/12/04 11:18:43;;;;;;;7.30;6.70;;;4.90;99.90;;;;;;5016752;28;20641;-63
2021/12/04 11:23:43;;;;;;;6.77;6.27;;;4.80;99.90;;;;;;5016343;28;20192;-63
2021/12/04 11:44:48;;;;;;;7.80;7.00;;;5.30;99.90;;;;;;5015981;28;20155;-63
2021/12/04 11:47:14;;;;;;;6.60;6.10;;;5.20;99.90;;;;;;4998461;28;20180;-63
2021/12/04 11:49:41;;;;;;;6.80;6.30;;;5.20;99.90;;;;;;5015800;28;20223;-63
2021/12/04 11:52:19;;;;;;;6.60;6.10;;;5.30;99.90;;;;;;5014795;28;20199;-63
2021/12/04 11:54:58;;;;;;;7.07;6.47;;;5.30;99.90;;;;;;5015807;28;20167;-63
2021/12/04 11:57:33;;;;;;;7.23;6.63;;;5.40;99.90;;;;;;4997991;28;20234;-63
2021/12/04 12:00:25;;;;;;;6.97;6.37;;;5.40;99.90;;;;;;5016223;28;20225;-63
2021/12/04 12:03:03;;;;;;;6.90;6.37;;;5.30;99.90;;;;;;5015699;28;20686;-66
2021/12/04 12:05:29;;;;;;;6.80;6.20;;;5.30;99.90;;;;;;5015623;28;20179;-65
2021/12/04 12:07:57;;;;;;;6.30;5.80;;;5.30;99.90;;;;;;5015740;28;20183;-66
2021/12/04 12:10:26;;;;;;;6.50;5.90;;;5.30;99.90;;;;;;5015798;28;20263;-66
2021/12/04 12:12:56;;;;;;;6.13;5.63;;;5.30;99.90;;;;;;5015313;28;20287;-66
2021/12/04 12:15:32;;;;;;;6.50;5.90;;;5.30;99.90;;;;;;5015546;28;20180;-66
2021/12/04 12:18:15;;;;;;;5.73;5.27;;;5.30;99.90;;;;;;5015564;28;20160;-66
2021/12/04 12:21:04;;;;;;;6.00;5.40;;;5.30;99.90;;;;;;5015242;28;20156;-66
2021/12/04 12:23:32;;;;;;;5.60;5.17;;;5.40;99.90;;;;;;5014386;28;20202;-66
2021/12/04 12:37:22;;;;;;;5.97;5.47;;;5.40;99.90;;;;;;5014740;28;20208;-66
2021/12/04 12:40:09;;;;;;;6.27;5.77;;;5.40;99.90;;;;;;4997296;28;20196;-66
2021/12/04 12:42:40;;;;;;;6.27;5.67;;;5.40;99.90;;;;;;4997190;28;20704;-66
2021/12/04 12:45:29;;;;;;;6.70;5.67;;;5.40;99.90;;;;;;5015095;28;20196;-65
2021/12/04 12:48:04;;;;;;;6.07;5.50;;;5.40;99.90;;;;;;5015054;28;20156;-66
2021/12/04 12:50:38;;;;;;;5.67;5.20;;;5.40;99.90;;;;;;5014962;28;20160;-65
2021/12/04 12:53:09;;;;;;;6.87;6.10;;;5.40;99.90;;;;;;5014558;28;20539;-67
2021/12/04 12:55:38;;;;;;;5.90;5.30;;;5.50;99.90;;;;;;5014819;28;20555;-66
2021/12/04 12:58:15;;;;;;;5.63;5.23;;;5.50;99.90;;;;;;5014596;28;20306;-66
2021/12/04 13:12:02;;;;;;;5.47;5.07;;;5.70;99.90;;;;;;5014832;28;20258;-65
2021/12/04 13:14:46;;;;;;;5.80;5.27;;;5.80;99.90;;;;;;4996885;28;20171;-66
2021/12/04 13:17:28;;;;;;;5.83;5.33;;;5.80;99.90;;;;;;5014933;28;20606;-67
2021/12/04 13:19:56;;;;;;;5.30;4.90;;;5.80;99.90;;;;;;5014799;28;20152;-68
2021/12/04 13:22:26;;;;;;;5.27;4.87;;;5.80;99.90;;;;;;5014304;28;20684;-66
2021/12/04 13:24:54;;;;;;;5.67;5.27;;;5.80;99.90;;;;;;5014167;28;20180;-66
2021/12/04 13:30:00;;;;;;;5.97;5.17;;;5.70;99.90;;;;;;5014379;28;20175;-66
2021/12/04 13:32:34;;;;;;;5.70;5.30;;;5.70;99.90;;;;;;5014114;28;20195;-66
2021/12/04 13:35:14;;;;;;;5.40;5.10;;;5.70;99.90;;;;;;5014019;28;20254;-66
2021/12/04 13:37:41;;;;;;;5.00;4.70;;;5.70;99.90;;;;;;5013985;28;20592;-66
2021/12/04 13:40:12;;;;;;;5.70;5.30;;;5.70;99.90;;;;;;5014187;28;20649;-67
2021/12/04 13:42:39;;;;;;;5.53;5.13;;;5.70;99.90;;;;;;5013903;28;20199;-65
2021/12/04 13:45:09;;;;;;;5.77;5.30;;;5.80;99.90;;;;;;4996145;28;20572;-65
2021/12/04 13:47:37;;;;;;;6.20;5.70;;;5.70;99.90;;;;;;5014239;28;20698;-65
2021/12/04 13:52:53;;;;;;;5.47;4.97;;;5.70;99.90;;;;;;5013965;28;20211;-65
2021/12/04 13:55:19;;;;;;;5.40;5.00;;;5.60;99.90;;;;;;5014278;28;20607;-65
2021/12/04 13:57:46;;;;;;;5.57;5.07;;;5.60;99.90;;;;;;5013785;28;20175;-65
2021/12/04 14:00:14;;;;;;;5.10;4.80;;;5.60;99.90;;;;;;5013964;28;20649;-65
2021/12/04 14:02:40;;;;;;;5.40;5.00;;;5.60;99.90;;;;;;5013334;28;20200;-65
2021/12/04 14:05:06;;;;;;;5.57;5.17;;;5.60;99.90;;;;;;4996035;28;20191;-65
2021/12/04 14:07:33;;;;;;;7.33;6.70;;;5.60;99.90;;;;;;5013956;28;20277;-66
2021/12/04 14:10:09;;;;;;;5.70;5.30;;;5.50;99.90;;;;;;5014776;28;20175;-67
2021/12/04 14:12:35;;;;;;;5.30;4.90;;;5.50;99.90;;;;;;5014912;28;20196;-67
2021/12/04 14:15:10;;;;;;;5.53;5.13;;;5.50;99.90;;;;;;4996165;28;20182;-66
2021/12/04 14:17:37;;;;;;;5.00;4.67;;;5.50;99.90;;;;;;5013592;28;20195;-65
2021/12/04 14:20:06;;;;;;;5.40;5.00;;;5.50;99.90;;;;;;5013706;28;20172;-63
2021/12/04 14:22:32;;;;;;;5.43;5.07;;;5.40;99.90;;;;;;5013556;28;20246;-65
2021/12/04 14:25:02;;;;;;;5.83;5.33;;;5.40;99.90;;;;;;5013923;28;20156;-64
2021/12/04 14:27:31;;;;;;;5.80;5.30;;;5.40;99.90;;;;;;5014260;28;20218;-63
2021/12/04 14:30:13;;;;;;;5.73;5.20;;;5.30;99.90;;;;;;5013296;28;20176;-64
2021/12/04 14:32:40;;;;;;;5.90;5.40;;;5.20;99.90;;;;;;5013249;28;20218;-64
2021/12/04 14:35:15;;;;;;;6.13;5.50;;;5.20;99.90;;;;;;4995695;28;20175;-63
2021/12/04 14:37:48;;;;;;;6.17;5.67;;;5.10;99.90;;;;;;5013250;28;20160;-63
2021/12/04 14:40:22;;;;;;;6.20;5.70;;;5.00;99.90;;;;;;5013516;28;20169;-64
2021/12/04 14:42:49;;;;;;;5.40;5.00;;;5.00;99.90;;;;;;5013462;28;20198;-64
2021/12/04 14:45:20;;;;;;;5.60;5.20;;;4.90;99.90;;;;;;4995553;28;20199;-64
2021/12/04 14:48:06;;;;;;;6.00;5.40;;;4.90;99.90;;;;;;5013244;28;20167;-64
2021/12/04 14:50:34;;;;;;;6.53;6.03;;;4.90;99.90;;;;;;5013432;28;20244;-64
2021/12/04 14:53:05;;;;;;;6.40;5.80;;;4.80;99.90;;;;;;5013174;28;20200;-64
2021/12/04 14:55:33;;;;;;;8.30;7.50;;;4.80;99.90;;;;;;4995403;28;20607;-64
2021/12/04 14:58:01;;;;;;;8.10;7.30;;;4.80;99.90;;;;;;5013335;28;20176;-63
2021/12/04 15:00:34;;;;;;;7.97;7.17;;;4.80;99.90;;;;;;4995528;28;20647;-64
2021/12/04 15:03:15;;;;;;;9.23;8.33;;;4.80;99.90;;;;;;5013051;28;20219;-64
2021/12/04 15:05:47;;;;;;;9.27;8.10;;;4.70;99.90;;;;;;5013060;28;20172;-64
2021/12/04 15:08:22;;;;;;;8.60;7.73;;;4.70;99.90;;;;;;4995390;28;20179;-64
2021/12/04 15:10:59;;;;;;;9.03;7.70;;;4.70;99.90;;;;;;5012895;28;20665;-64
2021/12/04 15:13:29;;;;;;;7.87;7.07;;;4.70;99.90;;;;;;5012989;28;20176;-63
2021/12/04 15:15:58;;;;;;;8.57;7.70;;;4.60;99.90;;;;;;5013114;28;20242;-64
2021/12/04 15:18:39;;;;;;;9.83;8.70;;;4.60;99.90;;;;;;5013150;28;20168;-63
2021/12/04 15:21:13;;;;;;;10.77;8.30;;;4.60;99.90;;;;;;5013101;28;20614;-63
2021/12/04 15:23:40;;;;;;;11.47;9.40;;;4.50;99.90;;;;;;4995208;28;20723;-63
2021/12/04 15:26:19;;;;;;;9.63;8.63;;;4.50;99.90;;;;;;5015192;28;20210;-64
2021/12/04 15:28:52;;;;;;;9.53;8.20;;;4.50;99.90;;;;;;5016639;28;20648;-63
2021/12/04 15:31:19;;;;;;;9.77;8.77;;;4.50;99.90;;;;;;5016195;28;20681;-64
2021/12/04 15:33:51;;;;;;;18.23;14.07;;;4.50;99.90;;;;;;5016157;28;20229;-64
2021/12/04 15:36:39;;;;;;;12.37;10.83;;;4.50;99.90;;;;;;4998515;28;20200;-64
2021/12/04 15:39:11;;;;;;;14.10;10.07;;;4.50;99.90;;;;;;5016384;28;20163;-63
2021/12/04 15:42:14;;;;;;;10.23;8.80;;;4.40;99.90;;;;;;5016093;28;20196;-63
2021/12/04 15:50:45;;;;;;;12.50;10.23;;;4.40;99.90;;;;;;5016203;28;20204;-63
2021/12/04 15:53:13;;;;;;;9.63;8.10;;;4.30;99.90;;;;;;4998254;28;20266;-63
2021/12/04 15:55:47;;;;;;;10.17;9.13;;;4.30;99.90;;;;;;4998129;28;20234;-63
2021/12/04 15:58:25;;;;;;;11.83;10.17;;;4.30;99.90;;;;;;5016067;28;20164;-63
2021/12/04 16:00:54;;;;;;;11.90;10.60;;;4.30;99.90;;;;;;5015943;28;20214;-64
2021/12/04 16:03:24;;;;;;;14.60;10.83;;;4.20;99.90;;;;;;5015743;28;20287;-63
2021/12/04 16:05:59;;;;;;;13.77;10.73;;;4.20;99.90;;;;;;5015558;28;20191;-63
2021/12/04 16:08:27;;;;;;;13.07;9.70;;;4.20;99.90;;;;;;5015802;28;20532;-63
2021/12/04 16:10:54;;;;;;;12.67;11.00;;;4.20;99.90;;;;;;5015934;28;20239;-63
2021/12/04 16:13:27;;;;;;;19.70;12.13;;;4.20;99.90;;;;;;5015297;28;20195;-63
2021/12/04 16:15:54;;;;;;;15.77;11.77;;;4.20;99.90;;;;;;4997697;28;20259;-63
2021/12/04 16:18:22;;;;;;;12.67;10.33;;;4.20;99.90;;;;;;4997687;28;20238;-63
2021/12/04 16:20:49;;;;;;;14.47;10.80;;;4.20;99.90;;;;;;5015445;28;20657;-63
2021/12/04 16:23:16;;;;;;;13.20;9.90;;;4.20;99.90;;;;;;4997624;28;20172;-63
2021/12/04 16:25:43;;;;;;;11.77;10.20;;;4.20;99.90;;;;;;5015217;28;20306;-63
2021/12/04 16:38:15;;;;;;;8.80;7.90;;;4.10;99.90;;;;;;5014456;28;20184;-63